Beja, Russia
Current Conditions -  °F | °C
As of 4:00 AM on Saturday 25 Oct 2014 (Local Time) from UNAA Reporting Station
Moderate Fog Moderate Fog  
Wind Chill: 32°   Ceiling: 10000
Heat Index: 32°   Visibility: 0.56mi
Dew Point: 30°   Wind: 2mph
Humidity: 93%   Direction: NA
Pressure: 30.12"   Gusts: NA
Location:  53.05°N, 90.91°E
Report Text: UNAA 242100Z VRB01MPS 0900 R02/1200V1500U FZFG SCT003 BKN100M00/M01 Q1020 TEMPO 0300 FZFG VV002 RMK QFE742 52290055
Loading
Personal Weather Stations






























Interactive Weather Map
Tropical Storm Tracking
New forecast layout! Learn more

10-Day Weather Forecast

Advertisements
Track Severe Weather on mobile